sensor_id;sensor_type;location;lat;lon;timestamp;temperature;humidity
5802;DHT22;2927;49.366;8.530;2024-01-15T00:01:16;-2.30;1.00
5802;DHT22;2927;49.366;8.530;2024-01-15T00:03:43;-2.30;1.00
5802;DHT22;2927;49.366;8.530;2024-01-15T00:06:09;-2.30;1.00
5802;DHT22;2927;49.366;8.530;2024-01-15T00:08:34;-2.30;1.00
5802;DHT22;2927;49.366;8.530;2024-01-15T00:11:00;-2.30;1.00
5802;DHT22;2927;49.366;8.530;2024-01-15T00:13:25;-2.30;1.00
5802;DHT22;2927;49.366;8.530;2024-01-15T00:15:51;-2.20;1.00
5802;DHT22;2927;49.366;8.530;2024-01-15T00:18:16;-2.30;1.00
5802;DHT22;2927;49.366;8.530;2024-01-15T00:20:42;-2.30;1.00
5802;DHT22;2927;49.366;8.530;2024-01-15T00:23:07;-2.30;1.00
5802;DHT22;2927;49.366;8.530;2024-01-15T00:25:33;-2.30;1.00
5802;DHT22;2927;49.366;8.530;2024-01-15T00:27:58;-2.40;1.00
5802;DHT22;2927;49.366;8.530;2024-01-15T00:30:24;-2.30;1.00
5802;DHT22;2927;49.366;8.530;2024-01-15T00:32:49;-2.30;1.00
5802;DHT22;2927;49.366;8.530;2024-01-15T00:35:15;-2.30;1.00
5802;DHT22;2927;49.366;8.530;2024-01-15T00:37:40;-2.30;1.00
5802;DHT22;2927;49.366;8.530;2024-01-15T00:40:06;-2.30;1.00
5802;DHT22;2927;49.366;8.530;2024-01-15T00:42:33;-2.30;1.00
5802;DHT22;2927;49.366;8.530;2024-01-15T00:44:59;-2.20;1.00
5802;DHT22;2927;49.366;8.530;2024-01-15T00:47:25;-2.20;1.00
5802;DHT22;2927;49.366;8.530;2024-01-15T00:49:50;-2.20;1.00
5802;DHT22;2927;49.366;8.530;2024-01-15T00:52:16;-2.20;1.00
5802;DHT22;2927;49.366;8.530;2024-01-15T00:54:41;-2.20;1.00
5802;DHT22;2927;49.366;8.530;2024-01-15T00:57:07;-2.20;1.00
5802;DHT22;2927;49.366;8.530;2024-01-15T00:59:32;-2.10;1.00
5802;DHT22;2927;49.366;8.530;2024-01-15T01:01:58;-2.20;1.00
5802;DHT22;2927;49.366;8.530;2024-01-15T01:04:23;-2.20;1.00
5802;DHT22;2927;49.366;8.530;2024-01-15T01:06:49;-2.20;1.00
5802;DHT22;2927;49.366;8.530;2024-01-15T01:09:14;-2.20;99.90
5802;DHT22;2927;49.366;8.530;2024-01-15T01:11:40;-2.30;99.90
5802;DHT22;2927;49.366;8.530;2024-01-15T01:14:05;-2.20;99.90
5802;DHT22;2927;49.366;8.530;2024-01-15T01:16:31;-2.20;99.90
5802;DHT22;2927;49.366;8.530;2024-01-15T01:19:04;-2.20;99.90
5802;DHT22;2927;49.366;8.530;2024-01-15T01:21:30;-2.20;99.90
5802;DHT22;2927;49.366;8.530;2024-01-15T01:23:55;-2.20;99.90
5802;DHT22;2927;49.366;8.530;2024-01-15T01:26:21;-2.20;99.90
5802;DHT22;2927;49.366;8.530;2024-01-15T01:28:46;-2.20;99.90
5802;DHT22;2927;49.366;8.530;2024-01-15T01:31:12;-2.20;42.00
5802;DHT22;2927;49.366;8.530;2024-01-15T01:33:38;-2.10;14.00
5802;DHT22;2927;49.366;8.530;2024-01-15T01:36:10;-2.10;1.00
5802;DHT22;2927;49.366;8.530;2024-01-15T01:38:36;-2.10;1.00
5802;DHT22;2927;49.366;8.530;2024-01-15T01:41:02;-2.10;1.00
5802;DHT22;2927;49.366;8.530;2024-01-15T01:43:28;-2.10;1.00
5802;DHT22;2927;49.366;8.530;2024-01-15T01:45:56;-2.10;1.00
5802;DHT22;2927;49.366;8.530;2024-01-15T01:48:23;-2.00;1.00
5802;DHT22;2927;49.366;8.530;2024-01-15T01:50:50;-2.00;1.00
5802;DHT22;2927;49.366;8.530;2024-01-15T01:53:16;-2.00;1.00
5802;DHT22;2927;49.366;8.530;2024-01-15T01:55:41;-2.00;1.00
5802;DHT22;2927;49.366;8.530;2024-01-15T01:58:07;-2.00;1.00
5802;DHT22;2927;49.366;8.530;2024-01-15T02:00:34;-2.00;1.00
5802;DHT22;2927;49.366;8.530;2024-01-15T02:03:00;-2.10;1.00
5802;DHT22;2927;49.366;8.530;2024-01-15T02:05:26;-2.10;1.00
5802;DHT22;2927;49.366;8.530;2024-01-15T02:07:52;-2.00;1.00
5802;DHT22;2927;49.366;8.530;2024-01-15T02:10:18;-2.00;1.00
5802;DHT22;2927;49.366;8.530;2024-01-15T02:12:44;-2.00;1.00
5802;DHT22;2927;49.366;8.530;2024-01-15T02:15:10;-2.00;1.00
5802;DHT22;2927;49.366;8.530;2024-01-15T02:17:42;-2.10;1.00
5802;DHT22;2927;49.366;8.530;2024-01-15T02:20:21;-2.00;1.00
5802;DHT22;2927;49.366;8.530;2024-01-15T02:22:46;-2.00;1.00
5802;DHT22;2927;49.366;8.530;2024-01-15T02:25:12;-2.00;1.00
5802;DHT22;2927;49.366;8.530;2024-01-15T02:27:37;-2.00;1.00
5802;DHT22;2927;49.366;8.530;2024-01-15T02:30:03;-2.00;1.00
5802;DHT22;2927;49.366;8.530;2024-01-15T02:32:30;-2.00;1.00
5802;DHT22;2927;49.366;8.530;2024-01-15T02:34:55;-2.00;1.00
5802;DHT22;2927;49.366;8.530;2024-01-15T02:37:21;-2.10;1.00
5802;DHT22;2927;49.366;8.530;2024-01-15T02:39:46;-2.00;49.00
5802;DHT22;2927;49.366;8.530;2024-01-15T02:42:12;-2.00;99.90
5802;DHT22;2927;49.366;8.530;2024-01-15T02:44:37;-2.00;99.90
5802;DHT22;2927;49.366;8.530;2024-01-15T02:47:03;-2.00;99.90
5802;DHT22;2927;49.366;8.530;2024-01-15T02:49:29;-2.00;99.90
5802;DHT22;2927;49.366;8.530;2024-01-15T02:51:54;-2.00;99.90
5802;DHT22;2927;49.366;8.530;2024-01-15T02:54:20;-1.90;99.90
5802;DHT22;2927;49.366;8.530;2024-01-15T02:56:45;-2.00;1.00
5802;DHT22;2927;49.366;8.530;2024-01-15T02:59:11;-2.00;99.90
5802;DHT22;2927;49.366;8.530;2024-01-15T03:01:36;-2.00;99.90
5802;DHT22;2927;49.366;8.530;2024-01-15T03:04:02;-2.00;1.00
5802;DHT22;2927;49.366;8.530;2024-01-15T03:06:28;-2.00;1.00
5802;DHT22;2927;49.366;8.530;2024-01-15T03:08:53;-2.00;1.00
5802;DHT22;2927;49.366;8.530;2024-01-15T03:11:18;-2.00;1.00
5802;DHT22;2927;49.366;8.530;2024-01-15T03:13:44;-2.00;1.00
5802;DHT22;2927;49.366;8.530;2024-01-15T03:16:10;-2.00;1.00
5802;DHT22;2927;49.366;8.530;2024-01-15T03:18:35;-2.00;1.00
5802;DHT22;2927;49.366;8.530;2024-01-15T03:21:02;-1.90;1.00
5802;DHT22;2927;49.366;8.530;2024-01-15T03:23:28;-1.90;1.00
5802;DHT22;2927;49.366;8.530;2024-01-15T03:25:53;-1.90;1.00
5802;DHT22;2927;49.366;8.530;2024-01-15T03:28:19;-1.90;1.00
5802;DHT22;2927;49.366;8.530;2024-01-15T03:30:44;-1.80;1.00
5802;DHT22;2927;49.366;8.530;2024-01-15T03:33:10;-1.80;1.00
5802;DHT22;2927;49.366;8.530;2024-01-15T03:35:35;-1.90;1.00
5802;DHT22;2927;49.366;8.530;2024-01-15T03:38:01;-1.80;1.00
5802;DHT22;2927;49.366;8.530;2024-01-15T03:40:26;-1.90;1.00
5802;DHT22;2927;49.366;8.530;2024-01-15T03:42:52;-1.80;1.00
5802;DHT22;2927;49.366;8.530;2024-01-15T03:45:17;-1.90;1.00
5802;DHT22;2927;49.366;8.530;2024-01-15T03:47:43;-1.80;99.90
5802;DHT22;2927;49.366;8.530;2024-01-15T03:50:09;-1.80;99.90
5802;DHT22;2927;49.366;8.530;2024-01-15T03:52:34;-1.80;1.00
5802;DHT22;2927;49.366;8.530;2024-01-15T03:55:00;-1.80;1.00
5802;DHT22;2927;49.366;8.530;2024-01-15T03:57:25;-1.80;99.90
5802;DHT22;2927;49.366;8.530;2024-01-15T03:59:51;-1.80;1.00
5802;DHT22;2927;49.366;8.530;2024-01-15T04:02:16;-1.80;99.90
5802;DHT22;2927;49.366;8.530;2024-01-15T04:04:42;-1.80;1.00
5802;DHT22;2927;49.366;8.530;2024-01-15T04:07:09;-1.90;1.00
5802;DHT22;2927;49.366;8.530;2024-01-15T04:09:35;-1.80;1.00
5802;DHT22;2927;49.366;8.530;2024-01-15T04:12:00;-1.80;1.00
5802;DHT22;2927;49.366;8.530;2024-01-15T04:14:26;-1.80;1.00
5802;DHT22;2927;49.366;8.530;2024-01-15T04:16:51;-1.90;1.00
5802;DHT22;2927;49.366;8.530;2024-01-15T04:19:17;-1.80;1.00
5802;DHT22;2927;49.366;8.530;2024-01-15T04:21:42;-1.80;1.00
5802;DHT22;2927;49.366;8.530;2024-01-15T04:24:08;-1.90;26.40
5802;DHT22;2927;49.366;8.530;2024-01-15T04:26:33;-1.80;99.90
5802;DHT22;2927;49.366;8.530;2024-01-15T04:28:59;-1.80;82.60
5802;DHT22;2927;49.366;8.530;2024-01-15T04:31:25;-1.80;94.30
5802;DHT22;2927;49.366;8.530;2024-01-15T04:33:53;-1.80;1.00
5802;DHT22;2927;49.366;8.530;2024-01-15T04:36:19;-1.80;1.00
5802;DHT22;2927;49.366;8.530;2024-01-15T04:38:44;-1.80;1.00
5802;DHT22;2927;49.366;8.530;2024-01-15T04:41:14;-1.80;1.00
5802;DHT22;2927;49.366;8.530;2024-01-15T04:43:41;-1.80;1.00
5802;DHT22;2927;49.366;8.530;2024-01-15T04:46:06;-1.80;1.00
5802;DHT22;2927;49.366;8.530;2024-01-15T04:48:33;-1.80;1.00
5802;DHT22;2927;49.366;8.530;2024-01-15T04:50:58;-1.80;15.00
5802;DHT22;2927;49.366;8.530;2024-01-15T04:53:24;-1.80;21.00
5802;DHT22;2927;49.366;8.530;2024-01-15T04:55:49;-1.80;99.90
5802;DHT22;2927;49.366;8.530;2024-01-15T04:58:15;-1.80;99.90
5802;DHT22;2927;49.366;8.530;2024-01-15T05:00:40;-1.80;99.90
5802;DHT22;2927;49.366;8.530;2024-01-15T05:03:06;-1.80;99.90
5802;DHT22;2927;49.366;8.530;2024-01-15T05:05:31;-1.80;99.90
5802;DHT22;2927;49.366;8.530;2024-01-15T05:07:57;-1.80;1.00
5802;DHT22;2927;49.366;8.530;2024-01-15T05:10:22;-1.80;1.00
5802;DHT22;2927;49.366;8.530;2024-01-15T05:12:48;-1.80;1.00
5802;DHT22;2927;49.366;8.530;2024-01-15T05:15:13;-1.80;1.00
5802;DHT22;2927;49.366;8.530;2024-01-15T05:17:39;-1.80;1.00
5802;DHT22;2927;49.366;8.530;2024-01-15T05:20:05;-1.80;1.00
5802;DHT22;2927;49.366;8.530;2024-01-15T05:22:30;-1.80;1.00
5802;DHT22;2927;49.366;8.530;2024-01-15T05:24:56;-1.80;1.00
5802;DHT22;2927;49.366;8.530;2024-01-15T05:27:21;-1.70;1.00
5802;DHT22;2927;49.366;8.530;2024-01-15T05:29:47;-1.80;1.00
5802;DHT22;2927;49.366;8.530;2024-01-15T05:32:12;-1.70;1.00
5802;DHT22;2927;49.366;8.530;2024-01-15T05:34:38;-1.80;1.00
5802;DHT22;2927;49.366;8.530;2024-01-15T05:37:03;-1.80;99.90
5802;DHT22;2927;49.366;8.530;2024-01-15T05:39:29;-1.60;99.90
5802;DHT22;2927;49.366;8.530;2024-01-15T05:41:54;-1.60;99.90
5802;DHT22;2927;49.366;8.530;2024-01-15T05:44:20;-1.70;1.00
5802;DHT22;2927;49.366;8.530;2024-01-15T05:46:46;-1.70;1.00
5802;DHT22;2927;49.366;8.530;2024-01-15T05:49:11;-1.60;1.00
5802;DHT22;2927;49.366;8.530;2024-01-15T05:51:37;-1.70;1.00
5802;DHT22;2927;49.366;8.530;2024-01-15T05:54:02;-1.70;1.00
5802;DHT22;2927;49.366;8.530;2024-01-15T05:56:28;-1.70;1.00
5802;DHT22;2927;49.366;8.530;2024-01-15T05:58:54;-1.70;1.00
5802;DHT22;2927;49.366;8.530;2024-01-15T06:01:19;-1.80;1.00
5802;DHT22;2927;49.366;8.530;2024-01-15T06:03:45;-1.70;1.00
5802;DHT22;2927;49.366;8.530;2024-01-15T06:06:10;-1.70;1.00
5802;DHT22;2927;49.366;8.530;2024-01-15T06:08:36;-1.70;1.00
5802;DHT22;2927;49.366;8.530;2024-01-15T06:11:01;-1.60;1.00
5802;DHT22;2927;49.366;8.530;2024-01-15T06:13:28;-1.60;1.00
5802;DHT22;2927;49.366;8.530;2024-01-15T06:15:53;-1.60;1.00
5802;DHT22;2927;49.366;8.530;2024-01-15T06:18:19;-1.60;1.00
5802;DHT22;2927;49.366;8.530;2024-01-15T06:20:44;-1.40;1.00
5802;DHT22;2927;49.366;8.530;2024-01-15T06:23:10;-1.50;1.00
5802;DHT22;2927;49.366;8.530;2024-01-15T06:25:36;-1.50;1.00
5802;DHT22;2927;49.366;8.530;2024-01-15T06:28:01;-1.40;1.00
5802;DHT22;2927;49.366;8.530;2024-01-15T06:30:27;-1.40;1.00
5802;DHT22;2927;49.366;8.530;2024-01-15T06:32:52;-1.40;1.00
5802;DHT22;2927;49.366;8.530;2024-01-15T06:35:18;-1.40;1.00
5802;DHT22;2927;49.366;8.530;2024-01-15T06:37:43;-1.40;99.90
5802;DHT22;2927;49.366;8.530;2024-01-15T06:40:09;-1.40;1.00
5802;DHT22;2927;49.366;8.530;2024-01-15T06:42:35;-1.30;1.00
5802;DHT22;2927;49.366;8.530;2024-01-15T06:45:00;-1.30;1.00
5802;DHT22;2927;49.366;8.530;2024-01-15T06:47:26;-1.30;1.00
5802;DHT22;2927;49.366;8.530;2024-01-15T06:49:51;-1.30;1.00
5802;DHT22;2927;49.366;8.530;2024-01-15T06:52:17;-1.30;1.00
5802;DHT22;2927;49.366;8.530;2024-01-15T06:54:43;-1.20;1.00
5802;DHT22;2927;49.366;8.530;2024-01-15T06:57:08;-1.20;1.00
5802;DHT22;2927;49.366;8.530;2024-01-15T06:59:34;-1.20;1.00
5802;DHT22;2927;49.366;8.530;2024-01-15T07:02:01;-1.20;1.00
5802;DHT22;2927;49.366;8.530;2024-01-15T07:04:26;-1.10;99.90
5802;DHT22;2927;49.366;8.530;2024-01-15T07:06:52;-1.10;99.90
5802;DHT22;2927;49.366;8.530;2024-01-15T07:09:17;-1.10;84.90
5802;DHT22;2927;49.366;8.530;2024-01-15T07:11:46;-1.10;83.30
5802;DHT22;2927;49.366;8.530;2024-01-15T07:14:12;-1.10;1.00
5802;DHT22;2927;49.366;8.530;2024-01-15T07:16:38;-1.10;1.00
5802;DHT22;2927;49.366;8.530;2024-01-15T07:19:03;-1.10;1.00
5802;DHT22;2927;49.366;8.530;2024-01-15T07:21:29;-1.10;1.00
5802;DHT22;2927;49.366;8.530;2024-01-15T07:23:55;-1.00;1.00
5802;DHT22;2927;49.366;8.530;2024-01-15T07:26:21;-1.10;1.00
5802;DHT22;2927;49.366;8.530;2024-01-15T07:28:46;-1.10;1.00
5802;DHT22;2927;49.366;8.530;2024-01-15T07:31:12;-1.10;1.00
5802;DHT22;2927;49.366;8.530;2024-01-15T07:33:38;-1.20;1.00
5802;DHT22;2927;49.366;8.530;2024-01-15T07:36:03;-1.20;99.90
5802;DHT22;2927;49.366;8.530;2024-01-15T07:38:29;-1.20;99.90
5802;DHT22;2927;49.366;8.530;2024-01-15T07:40:55;-1.20;99.90
5802;DHT22;2927;49.366;8.530;2024-01-15T07:43:20;-1.00;99.90
5802;DHT22;2927;49.366;8.530;2024-01-15T07:45:46;-1.10;88.80
5802;DHT22;2927;49.366;8.530;2024-01-15T07:48:11;-1.20;99.90
5802;DHT22;2927;49.366;8.530;2024-01-15T07:50:37;-1.20;99.90
5802;DHT22;2927;49.366;8.530;2024-01-15T07:53:03;-1.20;99.90
5802;DHT22;2927;49.366;8.530;2024-01-15T07:55:29;-1.20;1.00
5802;DHT22;2927;49.366;8.530;2024-01-15T07:57:54;-1.10;1.00
5802;DHT22;2927;49.366;8.530;2024-01-15T08:00:24;-1.10;1.00
5802;DHT22;2927;49.366;8.530;2024-01-15T08:02:49;-1.10;1.00
5802;DHT22;2927;49.366;8.530;2024-01-15T08:05:16;-1.10;1.00
5802;DHT22;2927;49.366;8.530;2024-01-15T08:07:42;-1.10;1.00
5802;DHT22;2927;49.366;8.530;2024-01-15T08:10:07;-1.10;90.70
5802;DHT22;2927;49.366;8.530;2024-01-15T08:12:33;-1.10;99.90
5802;DHT22;2927;49.366;8.530;2024-01-15T08:14:59;-1.00;99.90
5802;DHT22;2927;49.366;8.530;2024-01-15T08:17:24;-1.00;99.90
5802;DHT22;2927;49.366;8.530;2024-01-15T08:19:54;-0.90;99.90
5802;DHT22;2927;49.366;8.530;2024-01-15T08:22:19;-0.80;1.00
5802;DHT22;2927;49.366;8.530;2024-01-15T08:24:45;-0.80;1.00
5802;DHT22;2927;49.366;8.530;2024-01-15T08:27:11;-0.80;1.00
5802;DHT22;2927;49.366;8.530;2024-01-15T08:29:36;-0.70;1.00
5802;DHT22;2927;49.366;8.530;2024-01-15T08:32:02;-0.70;99.90
5802;DHT22;2927;49.366;8.530;2024-01-15T08:34:27;-0.60;1.00
5802;DHT22;2927;49.366;8.530;2024-01-15T08:36:53;-0.60;1.00
5802;DHT22;2927;49.366;8.530;2024-01-15T08:39:19;-0.60;1.00
5802;DHT22;2927;49.366;8.530;2024-01-15T08:41:45;-0.50;1.00
5802;DHT22;2927;49.366;8.530;2024-01-15T08:44:12;-0.50;1.00
5802;DHT22;2927;49.366;8.530;2024-01-15T08:46:38;-0.40;1.00
5802;DHT22;2927;49.366;8.530;2024-01-15T08:49:03;-0.40;99.90
5802;DHT22;2927;49.366;8.530;2024-01-15T08:51:29;-0.40;99.90
5802;DHT22;2927;49.366;8.530;2024-01-15T08:53:58;-0.40;99.90
5802;DHT22;2927;49.366;8.530;2024-01-15T08:56:24;-0.40;99.90
5802;DHT22;2927;49.366;8.530;2024-01-15T08:58:49;-0.40;99.90
5802;DHT22;2927;49.366;8.530;2024-01-15T09:01:15;-0.30;1.00
5802;DHT22;2927;49.366;8.530;2024-01-15T09:03:41;-0.30;1.00
5802;DHT22;2927;49.366;8.530;2024-01-15T09:06:10;-0.30;1.00
5802;DHT22;2927;49.366;8.530;2024-01-15T09:08:36;-0.30;1.00
5802;DHT22;2927;49.366;8.530;2024-01-15T09:11:02;-0.30;99.90
5802;DHT22;2927;49.366;8.530;2024-01-15T09:13:29;-0.20;1.00
5802;DHT22;2927;49.366;8.530;2024-01-15T09:15:54;-0.20;1.00
5802;DHT22;2927;49.366;8.530;2024-01-15T09:18:20;-0.20;1.00
5802;DHT22;2927;49.366;8.530;2024-01-15T09:20:45;-0.10;1.00
5802;DHT22;2927;49.366;8.530;2024-01-15T09:23:11;-0.10;1.00
5802;DHT22;2927;49.366;8.530;2024-01-15T09:25:36;-0.10;1.00
5802;DHT22;2927;49.366;8.530;2024-01-15T09:28:02;-0.10;1.00
5802;DHT22;2927;49.366;8.530;2024-01-15T09:30:27;0.00;1.00
5802;DHT22;2927;49.366;8.530;2024-01-15T09:32:53;0.00;81.20
5802;DHT22;2927;49.366;8.530;2024-01-15T09:35:19;0.00;99.90
5802;DHT22;2927;49.366;8.530;2024-01-15T09:37:44;0.10;99.90
5802;DHT22;2927;49.366;8.530;2024-01-15T09:40:13;0.10;1.00
5802;DHT22;2927;49.366;8.530;2024-01-15T09:42:42;0.10;1.00
5802;DHT22;2927;49.366;8.530;2024-01-15T09:45:09;0.10;1.00
5802;DHT22;2927;49.366;8.530;2024-01-15T09:47:36;0.10;99.90
5802;DHT22;2927;49.366;8.530;2024-01-15T09:50:02;0.10;1.00
5802;DHT22;2927;49.366;8.530;2024-01-15T09:52:30;0.10;99.90
5802;DHT22;2927;49.366;8.530;2024-01-15T09:54:57;0.10;1.00
5802;DHT22;2927;49.366;8.530;2024-01-15T09:57:24;0.10;1.00
5802;DHT22;2927;49.366;8.530;2024-01-15T09:59:52;0.10;75.70
5802;DHT22;2927;49.366;8.530;2024-01-15T10:02:20;0.10;1.00
5802;DHT22;2927;49.366;8.530;2024-01-15T10:04:46;0.20;99.90
5802;DHT22;2927;49.366;8.530;2024-01-15T10:07:16;0.20;1.00
5802;DHT22;2927;49.366;8.530;2024-01-15T10:09:45;0.20;1.00
5802;DHT22;2927;49.366;8.530;2024-01-15T10:12:11;0.20;1.00
5802;DHT22;2927;49.366;8.530;2024-01-15T10:14:37;0.20;1.00
5802;DHT22;2927;49.366;8.530;2024-01-15T10:17:12;0.20;1.00
5802;DHT22;2927;49.366;8.530;2024-01-15T10:19:38;0.20;1.00
5802;DHT22;2927;49.366;8.530;2024-01-15T10:22:04;0.20;95.10
5802;DHT22;2927;49.366;8.530;2024-01-15T10:24:30;0.10;99.90
5802;DHT22;2927;49.366;8.530;2024-01-15T10:27:05;0.10;1.00
5802;DHT22;2927;49.366;8.530;2024-01-15T10:29:31;0.10;1.00
5802;DHT22;2927;49.366;8.530;2024-01-15T10:31:57;0.00;1.00
5802;DHT22;2927;49.366;8.530;2024-01-15T10:34:22;0.00;1.00
5802;DHT22;2927;49.366;8.530;2024-01-15T10:36:49;0.00;1.60
5802;DHT22;2927;49.366;8.530;2024-01-15T10:39:21;-0.10;49.00
5802;DHT22;2927;49.366;8.530;2024-01-15T10:41:46;-0.10;99.50
5802;DHT22;2927;49.366;8.530;2024-01-15T10:44:12;-0.10;99.90
5802;DHT22;2927;49.366;8.530;2024-01-15T10:46:37;-0.10;99.90
5802;DHT22;2927;49.366;8.530;2024-01-15T10:49:04;-0.10;99.90
5802;DHT22;2927;49.366;8.530;2024-01-15T10:51:30;0.00;99.90
5802;DHT22;2927;49.366;8.530;2024-01-15T10:53:57;0.00;99.90
5802;DHT22;2927;49.366;8.530;2024-01-15T10:56:23;0.20;99.90
5802;DHT22;2927;49.366;8.530;2024-01-15T10:58:50;0.00;99.90
5802;DHT22;2927;49.366;8.530;2024-01-15T11:01:16;0.10;99.90
5802;DHT22;2927;49.366;8.530;2024-01-15T11:03:43;0.10;99.90
5802;DHT22;2927;49.366;8.530;2024-01-15T11:06:19;0.10;99.90
5802;DHT22;2927;49.366;8.530;2024-01-15T11:08:52;0.10;99.90
5802;DHT22;2927;49.366;8.530;2024-01-15T11:11:18;0.20;99.90
5802;DHT22;2927;49.366;8.530;2024-01-15T11:13:46;0.20;99.90
5802;DHT22;2927;49.366;8.530;2024-01-15T11:16:14;0.20;99.90
5802;DHT22;2927;49.366;8.530;2024-01-15T11:21:25;0.20;99.90
5802;DHT22;2927;49.366;8.530;2024-01-15T11:23:59;0.20;99.90
5802;DHT22;2927;49.366;8.530;2024-01-15T11:29:05;0.20;93.30
5802;DHT22;2927;49.366;8.530;2024-01-15T11:34:06;0.20;96.30
5802;DHT22;2927;49.366;8.530;2024-01-15T11:42:02;0.30;84.40
5802;DHT22;2927;49.366;8.530;2024-01-15T11:44:31;0.30;73.20
5802;DHT22;2927;49.366;8.530;2024-01-15T11:47:00;0.30;76.70
5802;DHT22;2927;49.366;8.530;2024-01-15T11:52:22;0.40;83.60
5802;DHT22;2927;49.366;8.530;2024-01-15T11:57:53;0.60;70.40
5802;DHT22;2927;49.366;8.530;2024-01-15T12:00:22;0.70;41.70
5802;DHT22;2927;49.366;8.530;2024-01-15T12:02:49;0.70;16.90
5802;DHT22;2927;49.366;8.530;2024-01-15T12:05:18;0.70;1.00
5802;DHT22;2927;49.366;8.530;2024-01-15T12:07:45;0.70;1.00
5802;DHT22;2927;49.366;8.530;2024-01-15T12:10:12;0.70;1.00
5802;DHT22;2927;49.366;8.530;2024-01-15T12:15:15;0.70;1.00
5802;DHT22;2927;49.366;8.530;2024-01-15T12:17:41;0.70;1.00
5802;DHT22;2927;49.366;8.530;2024-01-15T12:20:07;0.60;1.00
5802;DHT22;2927;49.366;8.530;2024-01-15T12:22:33;0.70;1.00
5802;DHT22;2927;49.366;8.530;2024-01-15T12:24:59;0.70;1.00
5802;DHT22;2927;49.366;8.530;2024-01-15T12:27:25;0.70;1.00
5802;DHT22;2927;49.366;8.530;2024-01-15T12:29:53;0.70;1.00
5802;DHT22;2927;49.366;8.530;2024-01-15T12:32:19;0.80;1.00
5802;DHT22;2927;49.366;8.530;2024-01-15T12:34:44;0.70;1.00
5802;DHT22;2927;49.366;8.530;2024-01-15T12:37:11;0.70;1.00
5802;DHT22;2927;49.366;8.530;2024-01-15T12:39:38;0.80;1.00
5802;DHT22;2927;49.366;8.530;2024-01-15T12:42:04;0.70;1.00
5802;DHT22;2927;49.366;8.530;2024-01-15T12:44:31;0.80;1.00
5802;DHT22;2927;49.366;8.530;2024-01-15T12:46:57;0.80;1.00
5802;DHT22;2927;49.366;8.530;2024-01-15T12:49:24;0.80;1.00
5802;DHT22;2927;49.366;8.530;2024-01-15T12:51:53;0.80;1.00
5802;DHT22;2927;49.366;8.530;2024-01-15T12:54:19;0.90;1.00
5802;DHT22;2927;49.366;8.530;2024-01-15T12:56:45;0.90;1.00
5802;DHT22;2927;49.366;8.530;2024-01-15T12:59:14;0.90;99.90
5802;DHT22;2927;49.366;8.530;2024-01-15T13:01:39;1.00;99.90
5802;DHT22;2927;49.366;8.530;2024-01-15T13:04:11;1.00;99.90
5802;DHT22;2927;49.366;8.530;2024-01-15T13:06:37;1.10;99.90
5802;DHT22;2927;49.366;8.530;2024-01-15T13:09:06;1.10;69.00
5802;DHT22;2927;49.366;8.530;2024-01-15T13:11:32;1.10;1.00
5802;DHT22;2927;49.366;8.530;2024-01-15T13:13:58;1.20;1.00
5802;DHT22;2927;49.366;8.530;2024-01-15T13:16:23;1.30;1.00
5802;DHT22;2927;49.366;8.530;2024-01-15T13:18:52;1.20;28.40
5802;DHT22;2927;49.366;8.530;2024-01-15T13:21:18;1.20;1.00
5802;DHT22;2927;49.366;8.530;2024-01-15T13:23:43;1.30;1.00
5802;DHT22;2927;49.366;8.530;2024-01-15T13:26:09;1.30;1.00
5802;DHT22;2927;49.366;8.530;2024-01-15T13:28:34;1.40;99.90
5802;DHT22;2927;49.366;8.530;2024-01-15T13:31:00;1.30;99.90
5802;DHT22;2927;49.366;8.530;2024-01-15T13:33:26;1.30;1.00
5802;DHT22;2927;49.366;8.530;2024-01-15T13:35:52;1.20;1.00
5802;DHT22;2927;49.366;8.530;2024-01-15T13:38:17;1.20;1.00
5802;DHT22;2927;49.366;8.530;2024-01-15T13:40:55;1.20;99.90
5802;DHT22;2927;49.366;8.530;2024-01-15T13:43:24;1.30;99.90
5802;DHT22;2927;49.366;8.530;2024-01-15T13:45:50;1.30;1.00
5802;DHT22;2927;49.366;8.530;2024-01-15T13:48:15;1.40;99.90
5802;DHT22;2927;49.366;8.530;2024-01-15T13:50:41;1.40;1.00
5802;DHT22;2927;49.366;8.530;2024-01-15T13:53:07;1.50;99.90
5802;DHT22;2927;49.366;8.530;2024-01-15T13:55:34;1.60;16.50
5802;DHT22;2927;49.366;8.530;2024-01-15T13:58:00;1.60;1.00
5802;DHT22;2927;49.366;8.530;2024-01-15T14:00:26;1.60;1.00
5802;DHT22;2927;49.366;8.530;2024-01-15T14:02:52;1.70;1.00
5802;DHT22;2927;49.366;8.530;2024-01-15T14:05:18;1.80;99.90
5802;DHT22;2927;49.366;8.530;2024-01-15T14:07:44;1.80;1.00
5802;DHT22;2927;49.366;8.530;2024-01-15T14:10:10;1.90;1.00
5802;DHT22;2927;49.366;8.530;2024-01-15T14:12:36;1.90;99.70
5802;DHT22;2927;49.366;8.530;2024-01-15T14:15:02;1.90;1.00
5802;DHT22;2927;49.366;8.530;2024-01-15T14:17:29;1.90;1.00
5802;DHT22;2927;49.366;8.530;2024-01-15T14:19:54;2.00;99.90
5802;DHT22;2927;49.366;8.530;2024-01-15T14:22:20;2.00;99.90
5802;DHT22;2927;49.366;8.530;2024-01-15T14:24:46;2.10;99.90
5802;DHT22;2927;49.366;8.530;2024-01-15T14:27:11;2.10;8.70
5802;DHT22;2927;49.366;8.530;2024-01-15T14:29:37;2.10;25.40
5802;DHT22;2927;49.366;8.530;2024-01-15T14:32:06;2.10;44.40
5802;DHT22;2927;49.366;8.530;2024-01-15T14:34:32;2.00;99.90
5802;DHT22;2927;49.366;8.530;2024-01-15T14:36:57;2.00;1.00
5802;DHT22;2927;49.366;8.530;2024-01-15T14:39:24;2.00;1.00
5802;DHT22;2927;49.366;8.530;2024-01-15T14:41:51;2.00;25.10
5802;DHT22;2927;49.366;8.530;2024-01-15T14:44:17;1.90;68.00
5802;DHT22;2927;49.366;8.530;2024-01-15T14:46:42;1.80;99.90
5802;DHT22;2927;49.366;8.530;2024-01-15T14:49:08;1.80;99.90
5802;DHT22;2927;49.366;8.530;2024-01-15T14:51:34;1.80;99.90
5802;DHT22;2927;49.366;8.530;2024-01-15T14:53:59;1.80;99.90
5802;DHT22;2927;49.366;8.530;2024-01-15T14:56:25;1.80;99.90
5802;DHT22;2927;49.366;8.530;2024-01-15T14:58:51;1.70;99.90
5802;DHT22;2927;49.366;8.530;2024-01-15T15:01:16;1.70;99.90
5802;DHT22;2927;49.366;8.530;2024-01-15T15:03:42;1.70;1.00
5802;DHT22;2927;49.366;8.530;2024-01-15T15:06:09;1.70;1.00
5802;DHT22;2927;49.366;8.530;2024-01-15T15:08:36;1.70;28.40
5802;DHT22;2927;49.366;8.530;2024-01-15T15:11:02;1.70;1.00
5802;DHT22;2927;49.366;8.530;2024-01-15T15:13:28;1.60;99.90
5802;DHT22;2927;49.366;8.530;2024-01-15T15:15:54;1.70;1.00
5802;DHT22;2927;49.366;8.530;2024-01-15T15:18:20;1.60;1.00
5802;DHT22;2927;49.366;8.530;2024-01-15T15:20:49;1.50;1.00
5802;DHT22;2927;49.366;8.530;2024-01-15T15:23:15;1.60;99.90
5802;DHT22;2927;49.366;8.530;2024-01-15T15:25:42;1.50;1.00
5802;DHT22;2927;49.366;8.530;2024-01-15T15:28:08;1.60;1.00
5802;DHT22;2927;49.366;8.530;2024-01-15T15:30:35;1.60;1.00
5802;DHT22;2927;49.366;8.530;2024-01-15T15:33:00;1.50;1.00
5802;DHT22;2927;49.366;8.530;2024-01-15T15:35:26;1.50;99.90
5802;DHT22;2927;49.366;8.530;2024-01-15T15:37:52;1.50;16.90
5802;DHT22;2927;49.366;8.530;2024-01-15T15:40:17;1.50;1.00
5802;DHT22;2927;49.366;8.530;2024-01-15T15:42:43;1.50;1.00
5802;DHT22;2927;49.366;8.530;2024-01-15T15:45:09;1.40;1.00
5802;DHT22;2927;49.366;8.530;2024-01-15T15:47:37;1.40;1.00
5802;DHT22;2927;49.366;8.530;2024-01-15T15:50:04;1.40;1.00
5802;DHT22;2927;49.366;8.530;2024-01-15T15:52:30;1.30;1.00
5802;DHT22;2927;49.366;8.530;2024-01-15T15:54:55;1.30;1.00
5802;DHT22;2927;49.366;8.530;2024-01-15T15:57:21;1.30;1.00
5802;DHT22;2927;49.366;8.530;2024-01-15T15:59:48;1.30;1.00
5802;DHT22;2927;49.366;8.530;2024-01-15T16:02:13;1.20;1.00
5802;DHT22;2927;49.366;8.530;2024-01-15T16:04:39;1.20;1.00
5802;DHT22;2927;49.366;8.530;2024-01-15T16:07:05;1.30;1.00
5802;DHT22;2927;49.366;8.530;2024-01-15T16:09:35;1.10;1.00
5802;DHT22;2927;49.366;8.530;2024-01-15T16:12:01;1.10;1.00
5802;DHT22;2927;49.366;8.530;2024-01-15T16:14:28;1.20;99.90
5802;DHT22;2927;49.366;8.530;2024-01-15T16:16:54;1.10;99.90
5802;DHT22;2927;49.366;8.530;2024-01-15T16:19:23;1.10;1.00
5802;DHT22;2927;49.366;8.530;2024-01-15T16:21:49;1.00;1.00
5802;DHT22;2927;49.366;8.530;2024-01-15T16:24:15;1.00;1.00
5802;DHT22;2927;49.366;8.530;2024-01-15T16:26:41;0.90;1.00
5802;DHT22;2927;49.366;8.530;2024-01-15T16:29:07;0.80;1.00
5802;DHT22;2927;49.366;8.530;2024-01-15T16:31:35;0.70;1.00
5802;DHT22;2927;49.366;8.530;2024-01-15T16:34:02;0.80;1.00